createdAt,value
2022-12-12T00:01:24.522Z,87.70
2022-12-12T00:03:48.008Z,88.30
2022-12-12T00:06:11.332Z,88.50
2022-12-12T00:08:34.585Z,88.30
2022-12-12T00:10:57.949Z,88.30
2022-12-12T00:13:21.517Z,88.70
2022-12-12T00:15:44.829Z,88.80
2022-12-12T00:18:09.619Z,88.50
2022-12-12T00:20:32.897Z,88.70
2022-12-12T00:22:56.313Z,88.00
2022-12-12T00:25:19.695Z,88.00
2022-12-12T00:27:42.978Z,88.20
2022-12-12T00:30:08.034Z,88.10
2022-12-12T00:32:31.557Z,88.50
2022-12-12T00:34:56.184Z,88.40
2022-12-12T00:37:19.487Z,88.90
2022-12-12T00:39:43.458Z,88.80
2022-12-12T00:42:07.078Z,88.70
2022-12-12T00:44:30.428Z,88.90
2022-12-12T00:46:53.877Z,88.70
2022-12-12T00:49:17.136Z,89.00
2022-12-12T00:51:41.883Z,89.00
2022-12-12T00:54:05.933Z,88.90
2022-12-12T00:56:30.938Z,88.40
2022-12-12T00:58:54.451Z,88.50
2022-12-12T01:01:21.267Z,88.30
2022-12-12T01:03:45.007Z,88.60
2022-12-12T01:06:08.714Z,89.00
2022-12-12T01:08:34.376Z,89.00
2022-12-12T01:10:57.924Z,89.00
2022-12-12T01:13:21.146Z,88.80
2022-12-12T01:15:44.536Z,88.80
2022-12-12T01:18:07.865Z,88.70
2022-12-12T01:20:31.112Z,88.50
2022-12-12T01:22:54.844Z,88.40
2022-12-12T01:25:20.293Z,89.00
2022-12-12T01:27:43.880Z,89.20
2022-12-12T01:30:09.137Z,89.20
2022-12-12T01:32:32.514Z,89.30
2022-12-12T01:34:55.822Z,89.20
2022-12-12T01:37:19.275Z,88.90
2022-12-12T01:39:43.639Z,89.60
2022-12-12T01:42:15.372Z,89.40
2022-12-12T01:44:44.906Z,89.50
2022-12-12T01:47:08.711Z,89.50
2022-12-12T01:49:34.037Z,89.20
2022-12-12T01:52:01.943Z,89.70
2022-12-12T01:54:29.991Z,89.50
2022-12-12T01:56:56.562Z,89.60
2022-12-12T01:59:25.077Z,89.60
2022-12-12T02:01:48.793Z,89.80
2022-12-12T02:04:12.809Z,89.90
2022-12-12T02:06:36.540Z,90.00
2022-12-12T02:09:05.340Z,90.10
2022-12-12T02:11:30.121Z,90.30
2022-12-12T02:13:53.518Z,90.40
2022-12-12T02:16:39.969Z,90.50
2022-12-12T02:19:24.849Z,90.50
2022-12-12T02:21:53.316Z,90.40
2022-12-12T02:25:15.450Z,90.50
2022-12-12T02:28:00.978Z,90.60
2022-12-12T02:30:26.498Z,90.60
2022-12-12T02:33:25.796Z,90.70
2022-12-12T02:36:04.747Z,90.80
2022-12-12T02:38:35.500Z,90.90
2022-12-12T02:41:14.378Z,90.90
2022-12-12T02:43:44.247Z,90.80
2022-12-12T02:46:16.186Z,90.70
2022-12-12T02:48:49.685Z,90.80
2022-12-12T02:51:15.446Z,90.80
2022-12-12T02:53:38.792Z,91.10
2022-12-12T02:56:08.304Z,91.30
2022-12-12T02:58:32.391Z,91.30
2022-12-12T03:01:12.184Z,91.20
2022-12-12T03:04:00.843Z,91.00
2022-12-12T03:07:01.929Z,91.10
2022-12-12T03:09:38.164Z,91.00
2022-12-12T03:12:08.601Z,91.30
2022-12-12T03:14:48.793Z,91.20
2022-12-12T03:17:21.207Z,91.20
2022-12-12T03:19:54.270Z,91.30
2022-12-12T03:22:26.290Z,91.40
2022-12-12T03:24:53.240Z,91.50
2022-12-12T03:27:25.549Z,91.40
2022-12-12T03:29:55.414Z,91.00
2022-12-12T03:32:24.488Z,91.20
2022-12-12T03:34:55.335Z,91.60
2022-12-12T03:37:24.726Z,91.80
2022-12-12T03:39:52.001Z,91.60
2022-12-12T03:42:22.346Z,91.60
2022-12-12T03:44:52.185Z,91.70
2022-12-12T03:47:21.593Z,91.40
2022-12-12T03:49:51.525Z,91.40
2022-12-12T03:52:20.572Z,91.50
2022-12-12T03:54:52.794Z,91.80
2022-12-12T03:57:23.728Z,91.60
2022-12-12T03:59:53.850Z,91.50
2022-12-12T04:02:23.961Z,91.50
2022-12-12T04:04:55.885Z,91.40
2022-12-12T04:07:24.297Z,91.30
2022-12-12T04:10:05.172Z,91.60
2022-12-12T04:12:54.148Z,91.80
2022-12-12T04:15:57.571Z,91.70
2022-12-12T04:18:30.467Z,91.80
2022-12-12T04:21:20.837Z,91.80
2022-12-12T04:23:52.993Z,91.70
2022-12-12T04:26:40.601Z,91.70
2022-12-12T04:29:25.569Z,91.60
2022-12-12T04:31:54.232Z,91.60
2022-12-12T04:34:29.560Z,91.30
2022-12-12T04:36:55.692Z,91.60
2022-12-12T04:39:21.528Z,91.50
2022-12-12T04:41:47.928Z,91.70
2022-12-12T04:44:14.763Z,91.60
2022-12-12T04:46:40.868Z,91.70
2022-12-12T04:49:09.399Z,91.60
2022-12-12T04:51:38.469Z,91.60
2022-12-12T04:54:11.038Z,91.80
2022-12-12T04:56:37.335Z,91.70
2022-12-12T04:59:00.636Z,91.60
2022-12-12T05:01:30.077Z,91.60
2022-12-12T05:03:57.525Z,91.60
2022-12-12T05:06:28.554Z,91.60
2022-12-12T05:08:54.537Z,91.60
2022-12-12T05:11:21.973Z,91.70
2022-12-12T05:13:45.789Z,91.60
2022-12-12T05:16:19.345Z,91.80
2022-12-12T05:18:42.785Z,91.50
2022-12-12T05:21:06.617Z,91.50
2022-12-12T05:23:34.490Z,91.50
2022-12-12T05:25:58.155Z,91.20
2022-12-12T05:28:22.777Z,91.60
2022-12-12T05:30:46.044Z,91.60
2022-12-12T05:33:09.334Z,91.50
2022-12-12T05:35:33.864Z,91.60
2022-12-12T05:37:57.124Z,91.40
2022-12-12T05:40:22.133Z,91.60
2022-12-12T05:42:45.564Z,91.70
2022-12-12T05:45:12.207Z,91.50
2022-12-12T05:47:36.254Z,91.50
2022-12-12T05:49:59.545Z,91.50
2022-12-12T05:52:22.830Z,91.60
2022-12-12T05:54:46.202Z,91.70
2022-12-12T05:57:09.644Z,91.70
2022-12-12T05:59:33.281Z,91.60
2022-12-12T06:01:58.176Z,91.60
2022-12-12T06:04:21.448Z,91.60
2022-12-12T06:06:44.761Z,91.60
2022-12-12T06:09:08.108Z,91.50
2022-12-12T06:11:31.404Z,91.40
2022-12-12T06:13:54.673Z,91.40
2022-12-12T06:16:20.311Z,91.50
2022-12-12T06:18:45.035Z,91.40
2022-12-12T06:21:11.248Z,91.40
2022-12-12T06:23:38.038Z,91.30
2022-12-12T06:26:01.351Z,91.10
2022-12-12T06:28:24.620Z,91.00
2022-12-12T06:30:47.995Z,91.10
2022-12-12T06:33:11.481Z,91.20
2022-12-12T06:35:36.462Z,91.10
2022-12-12T06:37:59.706Z,91.20
2022-12-12T06:40:23.252Z,91.00
2022-12-12T06:42:48.862Z,91.20
2022-12-12T06:45:12.884Z,91.40
2022-12-12T06:47:37.559Z,91.50
2022-12-12T06:50:00.889Z,91.60
2022-12-12T06:52:25.527Z,91.20
2022-12-12T06:54:49.149Z,91.20
2022-12-12T06:57:12.373Z,91.30
2022-12-12T06:59:35.598Z,91.30
2022-12-12T07:01:59.411Z,91.20
2022-12-12T07:04:22.656Z,91.30
2022-12-12T07:06:46.089Z,91.30
2022-12-12T07:09:10.766Z,91.60
2022-12-12T07:11:34.164Z,91.60
2022-12-12T07:13:59.991Z,91.60
2022-12-12T07:16:23.906Z,91.60
2022-12-12T07:18:48.034Z,91.60
2022-12-12T07:21:14.623Z,91.40
2022-12-12T07:23:38.311Z,91.30
2022-12-12T07:26:05.001Z,91.50
2022-12-12T07:28:28.294Z,91.40
2022-12-12T07:30:51.712Z,91.90
2022-12-12T07:33:17.566Z,91.90
2022-12-12T07:35:41.678Z,92.00
2022-12-12T07:38:06.134Z,91.90
2022-12-12T07:40:29.401Z,92.00
2022-12-12T07:42:54.041Z,91.90
2022-12-12T07:45:18.717Z,92.00
2022-12-12T07:47:42.278Z,92.00
2022-12-12T07:50:06.310Z,92.00
2022-12-12T07:52:29.566Z,91.90
2022-12-12T07:54:52.986Z,92.00
2022-12-12T07:57:16.354Z,92.00
2022-12-12T07:59:41.126Z,92.00
2022-12-12T08:02:05.178Z,92.10
2022-12-12T08:04:28.525Z,92.10
2022-12-12T08:06:59.687Z,92.00
2022-12-12T08:09:25.115Z,91.90
2022-12-12T08:11:48.314Z,92.00
2022-12-12T08:14:13.217Z,91.90
2022-12-12T08:16:38.153Z,91.80
2022-12-12T08:19:01.511Z,92.00
2022-12-12T08:21:26.530Z,91.90
2022-12-12T08:23:50.238Z,92.00
2022-12-12T08:26:16.716Z,91.90
2022-12-12T08:28:41.858Z,92.10
2022-12-12T08:31:06.084Z,92.00
2022-12-12T08:33:31.078Z,92.10
2022-12-12T08:35:54.559Z,92.10
2022-12-12T08:38:17.893Z,92.00
2022-12-12T08:40:42.258Z,92.10
2022-12-12T08:43:05.713Z,91.90
2022-12-12T08:45:28.961Z,91.90
2022-12-12T08:47:52.291Z,92.10
2022-12-12T08:50:17.445Z,92.00
2022-12-12T08:52:40.644Z,92.10
2022-12-12T08:55:04.159Z,92.20
2022-12-12T08:57:27.449Z,92.00
2022-12-12T08:59:50.933Z,92.10
2022-12-12T09:02:14.662Z,92.10
2022-12-12T09:04:38.015Z,92.30
2022-12-12T09:07:08.245Z,92.20
2022-12-12T09:09:32.177Z,92.20
2022-12-12T09:11:55.346Z,92.30
2022-12-12T09:14:18.719Z,92.20
2022-12-12T09:16:42.105Z,92.20
2022-12-12T09:19:05.463Z,92.20
2022-12-12T09:21:28.699Z,92.10
2022-12-12T09:23:53.441Z,92.00
2022-12-12T09:26:17.818Z,92.10
2022-12-12T09:28:41.682Z,92.10
2022-12-12T09:31:07.285Z,92.00
2022-12-12T09:33:30.705Z,91.70
2022-12-12T09:36:00.033Z,91.80
2022-12-12T09:38:23.388Z,91.70
2022-12-12T09:40:54.772Z,91.50
2022-12-12T09:43:27.735Z,91.20
2022-12-12T09:45:53.037Z,90.90
2022-12-12T09:48:27.091Z,90.90
2022-12-12T09:50:51.197Z,90.80
2022-12-12T09:53:18.276Z,90.70
2022-12-12T09:55:50.903Z,90.60
2022-12-12T09:58:22.732Z,90.80
2022-12-12T10:00:53.659Z,90.70
2022-12-12T10:03:31.002Z,90.40
2022-12-12T10:06:36.005Z,90.40
2022-12-12T10:09:02.602Z,89.90
2022-12-12T10:11:49.308Z,89.90
2022-12-12T10:14:14.427Z,89.70
2022-12-12T10:16:38.565Z,89.90
2022-12-12T10:19:10.297Z,90.00
2022-12-12T10:21:37.407Z,90.00
2022-12-12T10:24:07.614Z,89.80
2022-12-12T10:26:32.914Z,89.10
2022-12-12T10:29:02.995Z,89.10
2022-12-12T10:31:41.634Z,88.60
2022-12-12T10:34:26.026Z,88.30
2022-12-12T10:37:10.727Z,88.50
2022-12-12T10:39:45.440Z,87.80
2022-12-12T10:42:21.185Z,86.90
2022-12-12T10:45:19.284Z,86.60
2022-12-12T10:47:42.989Z,87.20
2022-12-12T10:50:28.868Z,86.30
2022-12-12T10:52:56.296Z,86.60
2022-12-12T10:55:23.813Z,86.20
2022-12-12T10:57:48.522Z,86.40
2022-12-12T11:00:23.183Z,85.80
2022-12-12T11:02:46.808Z,85.40
2022-12-12T11:05:19.719Z,85.40
2022-12-12T11:07:46.895Z,85.50
2022-12-12T11:10:33.952Z,84.70
2022-12-12T11:13:02.824Z,83.60
2022-12-12T11:15:40.673Z,83.50
2022-12-12T11:18:06.340Z,83.30
2022-12-12T11:20:29.922Z,83.70
2022-12-12T11:22:57.140Z,82.60
2022-12-12T11:25:28.346Z,83.20
2022-12-12T11:27:52.554Z,83.00
2022-12-12T11:30:25.660Z,82.20
2022-12-12T11:32:51.384Z,82.90
2022-12-12T11:35:25.925Z,82.80
2022-12-12T11:37:52.538Z,82.40
2022-12-12T11:40:25.686Z,80.70
2022-12-12T11:42:49.090Z,81.90
2022-12-12T11:45:24.914Z,81.80
2022-12-12T11:47:49.994Z,80.80
2022-12-12T11:50:21.935Z,80.10
2022-12-12T11:52:45.816Z,80.80
2022-12-12T11:55:16.355Z,80.90
2022-12-12T11:58:08.392Z,81.30
2022-12-12T12:00:41.283Z,81.60
2022-12-12T12:03:29.822Z,81.30
2022-12-12T12:06:10.223Z,81.30
2022-12-12T12:08:52.222Z,81.80
2022-12-12T12:11:28.293Z,81.30
2022-12-12T12:14:13.751Z,80.60
2022-12-12T12:16:51.651Z,81.00
2022-12-12T12:19:21.759Z,80.50
2022-12-12T12:21:57.665Z,80.80
2022-12-12T12:24:49.617Z,80.30
2022-12-12T12:27:20.922Z,79.70
2022-12-12T12:30:03.447Z,80.90
2022-12-12T12:32:40.368Z,79.10
2022-12-12T12:35:21.753Z,79.60
2022-12-12T12:37:58.973Z,75.70
2022-12-12T12:40:38.386Z,77.40
2022-12-12T12:43:27.974Z,77.00
2022-12-12T12:45:56.845Z,76.30
2022-12-12T12:48:28.438Z,77.20
2022-12-12T12:51:03.989Z,77.60
2022-12-12T12:53:34.675Z,77.70
2022-12-12T12:56:03.353Z,78.20
2022-12-12T12:58:33.544Z,76.30
2022-12-12T13:01:04.359Z,76.90
2022-12-12T13:03:36.281Z,73.00
2022-12-12T13:06:03.532Z,75.60
2022-12-12T13:08:33.769Z,74.80
2022-12-12T13:11:04.634Z,76.60
2022-12-12T13:13:31.383Z,76.00
2022-12-12T13:15:58.830Z,76.10
2022-12-12T13:18:22.211Z,75.00
2022-12-12T13:20:53.326Z,75.90
2022-12-12T13:23:38.628Z,75.80
2022-12-12T13:26:07.733Z,74.80
2022-12-12T13:28:38.171Z,74.50
2022-12-12T13:31:23.608Z,74.80
2022-12-12T13:33:50.958Z,75.60
2022-12-12T13:36:26.147Z,74.90
2022-12-12T13:38:56.502Z,74.70
2022-12-12T13:41:19.950Z,75.20
2022-12-12T13:43:47.463Z,74.50
2022-12-12T13:46:37.714Z,74.50
2022-12-12T13:49:14.553Z,74.90
2022-12-12T13:51:42.281Z,74.60
2022-12-12T13:54:52.068Z,75.60
2022-12-12T13:57:27.352Z,75.60
2022-12-12T14:00:24.293Z,75.00
2022-12-12T14:03:08.555Z,75.40
2022-12-12T14:05:36.022Z,75.00
2022-12-12T14:08:19.383Z,75.90
2022-12-12T14:10:52.950Z,76.90
2022-12-12T14:13:33.279Z,77.90
2022-12-12T14:16:07.296Z,77.80
2022-12-12T14:18:35.632Z,77.00
2022-12-12T14:21:03.619Z,77.60
2022-12-12T14:23:31.311Z,77.60
2022-12-12T14:25:55.174Z,77.60
2022-12-12T14:28:22.561Z,77.20
2022-12-12T14:31:13.239Z,77.40
2022-12-12T14:34:06.262Z,78.70
2022-12-12T14:37:09.881Z,78.70
2022-12-12T14:39:52.370Z,78.40
2022-12-12T14:42:26.205Z,80.00
2022-12-12T14:44:51.107Z,80.20
2022-12-12T14:47:18.349Z,81.40
2022-12-12T14:49:41.715Z,81.30
2022-12-12T14:52:05.432Z,80.90
2022-12-12T14:54:28.860Z,80.90
2022-12-12T14:56:56.503Z,81.00
2022-12-12T14:59:24.092Z,81.40
2022-12-12T15:01:50.309Z,83.30
2022-12-12T15:04:17.313Z,83.00
2022-12-12T15:06:42.074Z,83.50
2022-12-12T15:09:24.550Z,84.00
2022-12-12T15:11:49.578Z,83.60
2022-12-12T15:14:21.196Z,85.00
2022-12-12T15:16:49.050Z,84.90
2022-12-12T15:19:17.289Z,85.00
2022-12-12T15:21:40.856Z,84.90
2022-12-12T15:24:04.367Z,85.60
2022-12-12T15:26:30.101Z,85.60
2022-12-12T15:28:53.377Z,85.70
2022-12-12T15:31:20.209Z,85.80
2022-12-12T15:33:43.936Z,85.20
2022-12-12T15:36:21.788Z,85.50
2022-12-12T15:38:45.229Z,86.00
2022-12-12T15:41:13.522Z,86.30
2022-12-12T15:43:38.024Z,86.30
2022-12-12T15:46:06.807Z,86.10
2022-12-12T15:48:31.503Z,86.00
2022-12-12T15:50:58.823Z,86.70
2022-12-12T15:53:25.504Z,87.10
2022-12-12T15:55:58.171Z,87.00
2022-12-12T15:58:29.240Z,86.70
2022-12-12T16:00:54.005Z,87.40
2022-12-12T16:03:23.474Z,87.30
2022-12-12T16:06:05.632Z,87.30
2022-12-12T16:08:36.608Z,87.10
2022-12-12T16:11:02.095Z,87.30
2022-12-12T16:13:27.290Z,87.70
2022-12-12T16:15:50.652Z,87.70
2022-12-12T16:18:19.833Z,87.50
2022-12-12T16:20:49.821Z,87.60
2022-12-12T16:23:24.072Z,87.70
2022-12-12T16:25:47.577Z,88.10
2022-12-12T16:28:24.988Z,88.20
2022-12-12T16:30:55.213Z,88.30
2022-12-12T16:33:29.924Z,88.20
2022-12-12T16:35:55.213Z,88.00
2022-12-12T16:38:19.451Z,88.00
2022-12-12T16:40:43.046Z,88.30
2022-12-12T16:43:10.929Z,88.40
2022-12-12T16:45:34.745Z,88.60
2022-12-12T16:47:59.608Z,88.40
2022-12-12T16:50:23.931Z,88.50
2022-12-12T16:52:49.078Z,88.60
2022-12-12T16:55:18.074Z,88.80
2022-12-12T16:57:41.573Z,88.70
2022-12-12T17:00:06.443Z,88.40
2022-12-12T17:02:29.685Z,88.40
2022-12-12T17:04:53.410Z,88.50
2022-12-12T17:07:16.864Z,88.10
2022-12-12T17:09:41.530Z,88.20
2022-12-12T17:12:05.600Z,88.50
2022-12-12T17:14:28.812Z,88.70
2022-12-12T17:16:53.799Z,88.60
2022-12-12T17:19:18.284Z,88.70
2022-12-12T17:21:41.554Z,88.80
2022-12-12T17:24:05.321Z,88.90
2022-12-12T17:26:30.151Z,88.80
2022-12-12T17:28:53.479Z,88.90
2022-12-12T17:31:16.752Z,88.90
2022-12-12T17:33:49.829Z,89.00
2022-12-12T17:36:14.366Z,89.00
2022-12-12T17:38:37.576Z,88.90
2022-12-12T17:41:05.940Z,89.00
2022-12-12T17:43:30.556Z,88.80
2022-12-12T17:46:01.637Z,88.80
2022-12-12T17:48:25.180Z,88.90
2022-12-12T17:50:58.617Z,88.70
2022-12-12T17:53:21.985Z,88.50
2022-12-12T17:55:53.976Z,88.50
2022-12-12T17:58:29.576Z,88.40
2022-12-12T18:00:54.579Z,88.50
2022-12-12T18:03:17.853Z,89.10
2022-12-12T18:05:41.083Z,89.10
2022-12-12T18:08:04.534Z,88.90
2022-12-12T18:10:28.166Z,88.80
2022-12-12T18:12:52.232Z,88.60
2022-12-12T18:15:15.519Z,88.80
2022-12-12T18:17:40.771Z,89.10
2022-12-12T18:20:04.330Z,89.00
2022-12-12T18:22:27.776Z,89.10
2022-12-12T18:24:51.073Z,89.20
2022-12-12T18:27:14.335Z,89.30
2022-12-12T18:29:37.531Z,89.10
2022-12-12T18:32:00.958Z,88.90
2022-12-12T18:34:26.095Z,89.10
2022-12-12T18:36:49.762Z,89.10
2022-12-12T18:39:13.416Z,89.10
2022-12-12T18:41:37.744Z,89.30
2022-12-12T18:44:07.023Z,89.20
2022-12-12T18:46:35.897Z,89.40
2022-12-12T18:49:02.104Z,89.40
2022-12-12T18:51:28.495Z,89.50
2022-12-12T18:53:53.326Z,89.20
2022-12-12T18:56:19.956Z,89.30
2022-12-12T18:58:43.821Z,89.20
2022-12-12T19:01:08.341Z,89.20
2022-12-12T19:03:31.794Z,89.40
2022-12-12T19:05:54.985Z,89.60
2022-12-12T19:08:20.223Z,89.60
2022-12-12T19:10:46.389Z,89.40
2022-12-12T19:13:09.692Z,89.40
2022-12-12T19:15:33.029Z,89.20
2022-12-12T19:17:57.048Z,89.40
2022-12-12T19:20:20.472Z,89.40
2022-12-12T19:22:46.394Z,89.50
2022-12-12T19:25:11.661Z,89.60
2022-12-12T19:27:34.959Z,89.60
2022-12-12T19:29:58.202Z,89.70
2022-12-12T19:32:21.492Z,89.80
2022-12-12T19:34:44.811Z,89.60
2022-12-12T19:37:08.165Z,89.60
2022-12-12T19:39:31.582Z,89.60
2022-12-12T19:41:56.171Z,89.60
2022-12-12T19:44:19.497Z,89.50
2022-12-12T19:46:46.094Z,89.60
2022-12-12T19:49:12.245Z,89.70
2022-12-12T19:51:39.066Z,89.80
2022-12-12T19:54:03.445Z,89.70
2022-12-12T19:56:29.341Z,89.70
2022-12-12T19:58:54.057Z,89.60
2022-12-12T20:01:19.768Z,89.60
2022-12-12T20:03:43.269Z,89.70
2022-12-12T20:06:09.875Z,89.80
2022-12-12T20:08:36.433Z,89.90
2022-12-12T20:11:05.613Z,90.00
2022-12-12T20:13:28.871Z,89.80
2022-12-12T20:15:53.661Z,89.70
2022-12-12T20:18:17.109Z,89.80
2022-12-12T20:20:40.438Z,89.90
2022-12-12T20:23:03.644Z,90.00
2022-12-12T20:25:26.967Z,90.00
2022-12-12T20:27:50.288Z,89.80
2022-12-12T20:30:14.294Z,89.80
2022-12-12T20:32:39.090Z,89.70
2022-12-12T20:35:02.442Z,89.40
2022-12-12T20:37:26.528Z,89.60
2022-12-12T20:39:50.385Z,89.60
2022-12-12T20:42:13.673Z,89.80
2022-12-12T20:44:37.187Z,89.70
2022-12-12T20:47:00.955Z,89.70
2022-12-12T20:49:28.653Z,89.90
2022-12-12T20:51:57.322Z,89.80
2022-12-12T20:54:22.497Z,89.50
2022-12-12T20:56:46.496Z,89.50
2022-12-12T20:59:11.761Z,89.70
2022-12-12T21:01:37.680Z,89.80
2022-12-12T21:04:03.464Z,89.70
2022-12-12T21:06:30.766Z,89.90
2022-12-12T21:08:54.682Z,90.10
2022-12-12T21:11:21.057Z,90.10
2022-12-12T21:13:45.007Z,90.00
2022-12-12T21:16:13.910Z,90.10
2022-12-12T21:18:38.087Z,90.10
2022-12-12T21:21:01.401Z,90.10
2022-12-12T21:23:26.085Z,90.30
2022-12-12T21:25:49.482Z,90.20
2022-12-12T21:28:12.879Z,90.10
2022-12-12T21:30:36.110Z,90.00
2022-12-12T21:32:59.422Z,90.10
2022-12-12T21:35:22.799Z,90.00
2022-12-12T21:37:46.084Z,90.00
2022-12-12T21:40:12.687Z,90.00
2022-12-12T21:42:36.249Z,89.90
2022-12-12T21:44:59.552Z,90.00
2022-12-12T21:47:22.809Z,90.00
2022-12-12T21:49:46.183Z,90.10
2022-12-12T21:52:12.111Z,90.20
2022-12-12T21:54:35.453Z,90.40
2022-12-12T21:57:00.958Z,90.30
2022-12-12T21:59:25.149Z,90.20
2022-12-12T22:01:48.739Z,90.10
2022-12-12T22:04:13.922Z,90.10
2022-12-12T22:06:37.525Z,90.10
2022-12-12T22:09:03.081Z,90.20
2022-12-12T22:11:40.083Z,90.20
2022-12-12T22:14:12.110Z,90.20
2022-12-12T22:16:35.937Z,90.40
2022-12-12T22:19:03.863Z,90.40
2022-12-12T22:21:29.282Z,90.40
2022-12-12T22:23:55.476Z,90.40
2022-12-12T22:26:22.457Z,90.20
2022-12-12T22:28:45.805Z,90.30
2022-12-12T22:31:10.801Z,90.20
2022-12-12T22:33:34.102Z,90.30
2022-12-12T22:36:03.884Z,90.30
2022-12-12T22:38:27.134Z,90.30
2022-12-12T22:40:55.182Z,90.20
2022-12-12T22:43:18.431Z,90.10
2022-12-12T22:45:41.654Z,90.00
2022-12-12T22:48:06.787Z,90.20
2022-12-12T22:50:30.344Z,90.20
2022-12-12T22:52:53.628Z,90.20
2022-12-12T22:55:17.198Z,90.20
2022-12-12T22:57:40.436Z,90.20
2022-12-12T23:00:10.371Z,90.20
2022-12-12T23:02:33.777Z,90.40
2022-12-12T23:04:58.574Z,90.50
2022-12-12T23:07:21.963Z,90.30
2022-12-12T23:09:52.516Z,90.40
2022-12-12T23:12:15.849Z,90.30
2022-12-12T23:14:39.534Z,90.50
2022-12-12T23:17:02.771Z,90.40
2022-12-12T23:19:28.702Z,90.10
2022-12-12T23:21:53.845Z,90.20
2022-12-12T23:24:17.512Z,90.00
2022-12-12T23:26:40.901Z,90.10
2022-12-12T23:29:07.144Z,90.20
2022-12-12T23:31:33.862Z,90.30
2022-12-12T23:34:00.386Z,90.30
2022-12-12T23:36:24.977Z,90.40
2022-12-12T23:38:49.780Z,90.20
2022-12-12T23:41:16.177Z,90.00
2022-12-12T23:43:39.682Z,90.10
2022-12-12T23:46:03.695Z,90.00
2022-12-12T23:48:27.041Z,90.10
2022-12-12T23:50:50.310Z,90.00
2022-12-12T23:53:13.669Z,90.00
2022-12-12T23:55:39.272Z,90.00
2022-12-12T23:58:02.646Z,90.20
